Aberdeen, North Carolina
Current Conditions -  °F | °C
As of 5:15 PM on Wednesday 28 Jan 2015 (Local Time) from KSOP Reporting Station
Clear Clear  
Wind Chill: 43°   Ceiling: Unl
Heat Index: 43°   Visibility: 10mi
Dew Point:   Wind: 0mph
Humidity: 25%   Direction: NA
Pressure: 30.25"   Gusts: NA
Location:  35.13°N, 79.43°W
Report Text: KSOP 282215Z AUTO 00000KT 10SM CLR 06/M13 A3025 RMK AO1
Loading
Personal Weather Stations






























Interactive Weather Map New forecast layout! Learn more

10-Day Weather Forecast

Advertisements
Track Severe Weather on mobile